sensor_id;sensor_type;location;lat;lon;timestamp;temperature;humidity
18721;DHT22;9489;50.948;3.114;2023-05-14T00:00:20;12.50;99.90
18721;DHT22;9489;50.948;3.114;2023-05-14T00:02:46;12.50;99.90
18721;DHT22;9489;50.948;3.114;2023-05-14T00:05:11;12.40;99.90
18721;DHT22;9489;50.948;3.114;2023-05-14T00:07:44;12.50;99.90
18721;DHT22;9489;50.948;3.114;2023-05-14T00:10:10;12.50;99.90
18721;DHT22;9489;50.948;3.114;2023-05-14T00:12:38;12.50;99.90
18721;DHT22;9489;50.948;3.114;2023-05-14T00:15:10;12.40;99.90
18721;DHT22;9489;50.948;3.114;2023-05-14T00:17:36;12.40;99.90
18721;DHT22;9489;50.948;3.114;2023-05-14T00:20:03;12.40;99.90
18721;DHT22;9489;50.948;3.114;2023-05-14T00:22:32;12.40;99.90
18721;DHT22;9489;50.948;3.114;2023-05-14T00:24:58;12.30;99.90
18721;DHT22;9489;50.948;3.114;2023-05-14T00:27:24;12.30;99.90
18721;DHT22;9489;50.948;3.114;2023-05-14T00:29:50;12.30;99.90
18721;DHT22;9489;50.948;3.114;2023-05-14T00:32:18;12.30;99.90
18721;DHT22;9489;50.948;3.114;2023-05-14T00:34:44;12.20;99.90
18721;DHT22;9489;50.948;3.114;2023-05-14T00:37:10;12.20;99.90
18721;DHT22;9489;50.948;3.114;2023-05-14T00:39:36;12.20;99.90
18721;DHT22;9489;50.948;3.114;2023-05-14T00:42:01;12.10;99.90
18721;DHT22;9489;50.948;3.114;2023-05-14T00:44:27;12.20;99.90
18721;DHT22;9489;50.948;3.114;2023-05-14T00:46:53;12.20;99.90
18721;DHT22;9489;50.948;3.114;2023-05-14T00:49:19;12.20;99.90
18721;DHT22;9489;50.948;3.114;2023-05-14T00:51:44;12.30;99.90
18721;DHT22;9489;50.948;3.114;2023-05-14T00:54:14;12.20;99.90
18721;DHT22;9489;50.948;3.114;2023-05-14T00:56:41;12.20;99.90
18721;DHT22;9489;50.948;3.114;2023-05-14T00:59:07;12.20;99.90
18721;DHT22;9489;50.948;3.114;2023-05-14T01:01:32;12.30;99.90
18721;DHT22;9489;50.948;3.114;2023-05-14T01:03:58;12.20;99.90
18721;DHT22;9489;50.948;3.114;2023-05-14T01:15:14;12.20;99.90
18721;DHT22;9489;50.948;3.114;2023-05-14T01:17:50;12.30;99.90
18721;DHT22;9489;50.948;3.114;2023-05-14T01:20:18;12.30;99.90
18721;DHT22;9489;50.948;3.114;2023-05-14T01:22:43;12.40;99.90
18721;DHT22;9489;50.948;3.114;2023-05-14T01:25:09;12.40;99.90
18721;DHT22;9489;50.948;3.114;2023-05-14T01:30:22;12.40;99.90
18721;DHT22;9489;50.948;3.114;2023-05-14T01:32:54;12.40;99.90
18721;DHT22;9489;50.948;3.114;2023-05-14T01:35:26;12.40;99.90
18721;DHT22;9489;50.948;3.114;2023-05-14T01:37:54;12.40;99.90
18721;DHT22;9489;50.948;3.114;2023-05-14T01:40:22;12.40;99.90
18721;DHT22;9489;50.948;3.114;2023-05-14T01:42:48;12.40;99.90
18721;DHT22;9489;50.948;3.114;2023-05-14T01:45:16;12.40;99.90
18721;DHT22;9489;50.948;3.114;2023-05-14T01:47:44;12.30;99.90
18721;DHT22;9489;50.948;3.114;2023-05-14T01:50:10;12.30;99.90
18721;DHT22;9489;50.948;3.114;2023-05-14T01:52:35;12.30;99.90
18721;DHT22;9489;50.948;3.114;2023-05-14T01:55:01;12.30;99.90
18721;DHT22;9489;50.948;3.114;2023-05-14T01:57:26;12.30;99.90
18721;DHT22;9489;50.948;3.114;2023-05-14T01:59:52;12.30;99.90
18721;DHT22;9489;50.948;3.114;2023-05-14T02:02:18;12.40;99.90
18721;DHT22;9489;50.948;3.114;2023-05-14T02:04:43;12.40;99.90
18721;DHT22;9489;50.948;3.114;2023-05-14T02:07:09;12.40;99.90
18721;DHT22;9489;50.948;3.114;2023-05-14T02:09:35;12.40;99.90
18721;DHT22;9489;50.948;3.114;2023-05-14T02:12:01;12.40;99.90
18721;DHT22;9489;50.948;3.114;2023-05-14T02:14:26;12.40;99.90
18721;DHT22;9489;50.948;3.114;2023-05-14T02:16:52;12.20;99.90
18721;DHT22;9489;50.948;3.114;2023-05-14T02:19:17;12.10;99.90
18721;DHT22;9489;50.948;3.114;2023-05-14T02:21:43;12.10;99.90
18721;DHT22;9489;50.948;3.114;2023-05-14T02:24:09;12.10;99.90
18721;DHT22;9489;50.948;3.114;2023-05-14T02:26:34;12.20;99.90
18721;DHT22;9489;50.948;3.114;2023-05-14T02:29:00;12.20;99.90
18721;DHT22;9489;50.948;3.114;2023-05-14T02:31:26;12.30;99.90
18721;DHT22;9489;50.948;3.114;2023-05-14T02:33:51;12.40;99.90
18721;DHT22;9489;50.948;3.114;2023-05-14T02:36:17;12.30;99.90
18721;DHT22;9489;50.948;3.114;2023-05-14T02:38:42;12.30;99.90
18721;DHT22;9489;50.948;3.114;2023-05-14T02:41:08;12.30;99.90
18721;DHT22;9489;50.948;3.114;2023-05-14T02:43:34;12.30;99.90
18721;DHT22;9489;50.948;3.114;2023-05-14T02:46:00;12.30;99.90
18721;DHT22;9489;50.948;3.114;2023-05-14T02:48:25;12.40;99.90
18721;DHT22;9489;50.948;3.114;2023-05-14T02:50:51;12.40;99.90
18721;DHT22;9489;50.948;3.114;2023-05-14T02:53:17;12.40;99.90
18721;DHT22;9489;50.948;3.114;2023-05-14T02:55:43;12.40;99.90
18721;DHT22;9489;50.948;3.114;2023-05-14T02:58:08;12.10;99.90
18721;DHT22;9489;50.948;3.114;2023-05-14T03:00:35;12.20;99.90
18721;DHT22;9489;50.948;3.114;2023-05-14T03:03:00;12.20;99.90
18721;DHT22;9489;50.948;3.114;2023-05-14T03:05:26;12.20;99.90
18721;DHT22;9489;50.948;3.114;2023-05-14T03:07:52;12.20;99.90
18721;DHT22;9489;50.948;3.114;2023-05-14T03:10:18;12.10;99.90
18721;DHT22;9489;50.948;3.114;2023-05-14T03:12:44;12.00;99.90
18721;DHT22;9489;50.948;3.114;2023-05-14T03:15:10;12.00;99.90
18721;DHT22;9489;50.948;3.114;2023-05-14T03:17:36;12.00;99.90
18721;DHT22;9489;50.948;3.114;2023-05-14T03:20:02;12.00;99.90
18721;DHT22;9489;50.948;3.114;2023-05-14T03:22:28;12.00;99.90
18721;DHT22;9489;50.948;3.114;2023-05-14T03:24:53;12.10;99.90
18721;DHT22;9489;50.948;3.114;2023-05-14T03:27:19;12.10;99.90
18721;DHT22;9489;50.948;3.114;2023-05-14T03:29:45;12.10;99.90
18721;DHT22;9489;50.948;3.114;2023-05-14T03:32:11;12.10;99.90
18721;DHT22;9489;50.948;3.114;2023-05-14T03:34:36;12.10;99.90
18721;DHT22;9489;50.948;3.114;2023-05-14T03:37:02;12.10;99.90
18721;DHT22;9489;50.948;3.114;2023-05-14T03:39:28;12.10;99.90
18721;DHT22;9489;50.948;3.114;2023-05-14T03:41:53;12.00;99.90
18721;DHT22;9489;50.948;3.114;2023-05-14T03:44:21;12.00;99.90
18721;DHT22;9489;50.948;3.114;2023-05-14T03:46:47;12.00;99.90
18721;DHT22;9489;50.948;3.114;2023-05-14T03:49:12;12.00;99.90
18721;DHT22;9489;50.948;3.114;2023-05-14T03:51:38;12.10;99.90
18721;DHT22;9489;50.948;3.114;2023-05-14T03:54:05;12.10;99.90
18721;DHT22;9489;50.948;3.114;2023-05-14T03:56:30;12.10;99.90
18721;DHT22;9489;50.948;3.114;2023-05-14T03:58:56;12.10;99.90
18721;DHT22;9489;50.948;3.114;2023-05-14T04:01:22;12.00;99.90
18721;DHT22;9489;50.948;3.114;2023-05-14T04:03:47;11.90;99.90
18721;DHT22;9489;50.948;3.114;2023-05-14T04:06:13;12.00;99.90
18721;DHT22;9489;50.948;3.114;2023-05-14T04:08:38;11.90;99.90
18721;DHT22;9489;50.948;3.114;2023-05-14T04:11:04;12.00;99.90
18721;DHT22;9489;50.948;3.114;2023-05-14T04:13:30;11.90;99.90
18721;DHT22;9489;50.948;3.114;2023-05-14T04:15:55;11.80;99.90
18721;DHT22;9489;50.948;3.114;2023-05-14T04:18:21;11.80;99.90
18721;DHT22;9489;50.948;3.114;2023-05-14T04:20:46;11.70;99.90
18721;DHT22;9489;50.948;3.114;2023-05-14T04:23:12;11.80;99.90
18721;DHT22;9489;50.948;3.114;2023-05-14T04:25:38;11.80;99.90
18721;DHT22;9489;50.948;3.114;2023-05-14T04:28:03;11.80;99.90
18721;DHT22;9489;50.948;3.114;2023-05-14T04:30:29;11.80;99.90
18721;DHT22;9489;50.948;3.114;2023-05-14T04:32:55;11.70;99.90
18721;DHT22;9489;50.948;3.114;2023-05-14T04:35:21;11.60;99.90
18721;DHT22;9489;50.948;3.114;2023-05-14T04:37:47;11.50;99.90
18721;DHT22;9489;50.948;3.114;2023-05-14T04:40:13;11.50;99.90
18721;DHT22;9489;50.948;3.114;2023-05-14T04:42:41;11.60;99.90
18721;DHT22;9489;50.948;3.114;2023-05-14T04:45:08;11.50;99.90
18721;DHT22;9489;50.948;3.114;2023-05-14T04:47:34;11.50;99.90
18721;DHT22;9489;50.948;3.114;2023-05-14T04:50:00;11.60;99.90
18721;DHT22;9489;50.948;3.114;2023-05-14T04:52:26;11.60;99.90
18721;DHT22;9489;50.948;3.114;2023-05-14T04:54:51;11.60;99.90
18721;DHT22;9489;50.948;3.114;2023-05-14T04:57:17;11.70;99.90
18721;DHT22;9489;50.948;3.114;2023-05-14T04:59:43;11.70;99.90
18721;DHT22;9489;50.948;3.114;2023-05-14T05:02:08;11.80;99.90
18721;DHT22;9489;50.948;3.114;2023-05-14T05:04:34;11.90;99.90
18721;DHT22;9489;50.948;3.114;2023-05-14T05:07:00;11.80;99.90
18721;DHT22;9489;50.948;3.114;2023-05-14T05:09:25;11.90;99.90
18721;DHT22;9489;50.948;3.114;2023-05-14T05:11:51;11.90;99.90
18721;DHT22;9489;50.948;3.114;2023-05-14T05:14:16;11.90;99.90
18721;DHT22;9489;50.948;3.114;2023-05-14T05:16:42;12.00;99.90
18721;DHT22;9489;50.948;3.114;2023-05-14T05:19:08;11.90;99.90
18721;DHT22;9489;50.948;3.114;2023-05-14T05:21:34;11.90;99.90
18721;DHT22;9489;50.948;3.114;2023-05-14T05:24:00;11.90;99.90
18721;DHT22;9489;50.948;3.114;2023-05-14T05:26:26;11.80;99.90
18721;DHT22;9489;50.948;3.114;2023-05-14T05:28:52;11.80;99.90
18721;DHT22;9489;50.948;3.114;2023-05-14T05:31:18;11.90;99.90
18721;DHT22;9489;50.948;3.114;2023-05-14T05:33:44;11.90;99.90
18721;DHT22;9489;50.948;3.114;2023-05-14T05:36:10;12.00;99.90
18721;DHT22;9489;50.948;3.114;2023-05-14T05:38:35;12.10;99.90
18721;DHT22;9489;50.948;3.114;2023-05-14T05:41:01;12.20;99.90
18721;DHT22;9489;50.948;3.114;2023-05-14T05:43:26;12.20;99.90
18721;DHT22;9489;50.948;3.114;2023-05-14T05:45:55;12.20;99.90
18721;DHT22;9489;50.948;3.114;2023-05-14T05:48:20;12.20;99.90
18721;DHT22;9489;50.948;3.114;2023-05-14T05:50:47;12.20;99.90
18721;DHT22;9489;50.948;3.114;2023-05-14T05:53:13;12.30;99.90
18721;DHT22;9489;50.948;3.114;2023-05-14T05:55:41;12.30;99.90
18721;DHT22;9489;50.948;3.114;2023-05-14T05:58:07;12.40;99.90
18721;DHT22;9489;50.948;3.114;2023-05-14T06:00:32;12.30;99.90
18721;DHT22;9489;50.948;3.114;2023-05-14T06:02:58;12.40;99.90
18721;DHT22;9489;50.948;3.114;2023-05-14T06:05:24;12.40;99.90
18721;DHT22;9489;50.948;3.114;2023-05-14T06:07:50;12.40;99.90
18721;DHT22;9489;50.948;3.114;2023-05-14T06:10:18;12.50;99.90
18721;DHT22;9489;50.948;3.114;2023-05-14T06:12:43;12.50;99.90
18721;DHT22;9489;50.948;3.114;2023-05-14T06:15:09;12.50;99.90
18721;DHT22;9489;50.948;3.114;2023-05-14T06:17:37;12.60;99.90
18721;DHT22;9489;50.948;3.114;2023-05-14T06:20:03;12.60;99.90
18721;DHT22;9489;50.948;3.114;2023-05-14T06:22:30;12.70;99.90
18721;DHT22;9489;50.948;3.114;2023-05-14T06:24:56;12.80;99.90
18721;DHT22;9489;50.948;3.114;2023-05-14T06:27:21;12.80;98.40
18721;DHT22;9489;50.948;3.114;2023-05-14T06:29:47;12.60;99.90
18721;DHT22;9489;50.948;3.114;2023-05-14T06:32:13;12.60;99.90
18721;DHT22;9489;50.948;3.114;2023-05-14T06:34:40;12.70;99.90
18721;DHT22;9489;50.948;3.114;2023-05-14T06:37:07;12.70;99.90
18721;DHT22;9489;50.948;3.114;2023-05-14T06:39:34;12.60;99.90
18721;DHT22;9489;50.948;3.114;2023-05-14T06:42:00;12.50;99.90
18721;DHT22;9489;50.948;3.114;2023-05-14T06:44:26;12.50;99.90
18721;DHT22;9489;50.948;3.114;2023-05-14T06:46:51;12.50;99.90
18721;DHT22;9489;50.948;3.114;2023-05-14T06:49:17;12.50;99.90
18721;DHT22;9489;50.948;3.114;2023-05-14T06:51:43;12.50;99.90
18721;DHT22;9489;50.948;3.114;2023-05-14T06:54:08;12.60;99.90
18721;DHT22;9489;50.948;3.114;2023-05-14T06:56:34;12.60;99.90
18721;DHT22;9489;50.948;3.114;2023-05-14T06:59:00;12.60;99.70
18721;DHT22;9489;50.948;3.114;2023-05-14T07:01:25;12.60;99.90
18721;DHT22;9489;50.948;3.114;2023-05-14T07:03:51;12.70;99.80
18721;DHT22;9489;50.948;3.114;2023-05-14T07:06:17;12.90;93.10
18721;DHT22;9489;50.948;3.114;2023-05-14T07:08:43;12.80;90.30
18721;DHT22;9489;50.948;3.114;2023-05-14T07:11:10;12.90;95.80
18721;DHT22;9489;50.948;3.114;2023-05-14T07:13:38;12.90;88.20
18721;DHT22;9489;50.948;3.114;2023-05-14T07:16:04;13.10;73.20
18721;DHT22;9489;50.948;3.114;2023-05-14T07:18:30;13.20;67.80
18721;DHT22;9489;50.948;3.114;2023-05-14T07:20:56;13.30;46.80
18721;DHT22;9489;50.948;3.114;2023-05-14T07:23:22;13.30;13.30
18721;DHT22;9489;50.948;3.114;2023-05-14T07:25:48;13.40;7.70
18721;DHT22;9489;50.948;3.114;2023-05-14T07:28:13;13.50;1.00
18721;DHT22;9489;50.948;3.114;2023-05-14T07:30:39;13.60;1.00
18721;DHT22;9489;50.948;3.114;2023-05-14T07:33:04;13.60;1.00
18721;DHT22;9489;50.948;3.114;2023-05-14T07:35:30;13.70;1.00
18721;DHT22;9489;50.948;3.114;2023-05-14T07:37:56;13.80;1.00
18721;DHT22;9489;50.948;3.114;2023-05-14T07:40:21;13.80;1.00
18721;DHT22;9489;50.948;3.114;2023-05-14T07:42:49;13.70;1.00
18721;DHT22;9489;50.948;3.114;2023-05-14T07:45:15;13.60;1.00
18721;DHT22;9489;50.948;3.114;2023-05-14T07:47:40;13.70;1.00
18721;DHT22;9489;50.948;3.114;2023-05-14T07:50:07;13.60;1.00
18721;DHT22;9489;50.948;3.114;2023-05-14T07:52:32;13.50;1.00
18721;DHT22;9489;50.948;3.114;2023-05-14T07:54:58;13.60;1.00
18721;DHT22;9489;50.948;3.114;2023-05-14T07:57:25;13.70;1.00
18721;DHT22;9489;50.948;3.114;2023-05-14T07:59:51;13.80;1.00
18721;DHT22;9489;50.948;3.114;2023-05-14T08:02:17;14.00;1.00
18721;DHT22;9489;50.948;3.114;2023-05-14T08:04:43;14.10;1.00
18721;DHT22;9489;50.948;3.114;2023-05-14T08:07:09;14.30;1.00
18721;DHT22;9489;50.948;3.114;2023-05-14T08:09:35;14.40;1.00
18721;DHT22;9489;50.948;3.114;2023-05-14T08:12:01;14.50;1.00
18721;DHT22;9489;50.948;3.114;2023-05-14T08:14:27;14.60;1.00
18721;DHT22;9489;50.948;3.114;2023-05-14T08:16:53;14.60;1.00
18721;DHT22;9489;50.948;3.114;2023-05-14T08:19:18;14.60;1.00
18721;DHT22;9489;50.948;3.114;2023-05-14T08:21:44;14.80;1.00
18721;DHT22;9489;50.948;3.114;2023-05-14T08:24:10;15.30;1.00
18721;DHT22;9489;50.948;3.114;2023-05-14T08:26:35;15.70;1.00
18721;DHT22;9489;50.948;3.114;2023-05-14T08:29:03;15.90;99.90
18721;DHT22;9489;50.948;3.114;2023-05-14T08:31:28;16.10;99.90
18721;DHT22;9489;50.948;3.114;2023-05-14T08:33:54;16.20;99.90
18721;DHT22;9489;50.948;3.114;2023-05-14T08:36:20;16.20;1.00
18721;DHT22;9489;50.948;3.114;2023-05-14T08:38:45;16.40;99.90
18721;DHT22;9489;50.948;3.114;2023-05-14T08:41:12;16.60;6.50
18721;DHT22;9489;50.948;3.114;2023-05-14T08:46:29;17.50;1.00
18721;DHT22;9489;50.948;3.114;2023-05-14T08:49:01;17.60;99.90
18721;DHT22;9489;50.948;3.114;2023-05-14T08:51:29;17.40;1.00
18721;DHT22;9489;50.948;3.114;2023-05-14T08:53:58;16.90;99.90
18721;DHT22;9489;50.948;3.114;2023-05-14T08:56:26;16.70;1.00
18721;DHT22;9489;50.948;3.114;2023-05-14T08:58:53;16.80;99.90
18721;DHT22;9489;50.948;3.114;2023-05-14T09:01:18;17.00;99.90
18721;DHT22;9489;50.948;3.114;2023-05-14T09:03:44;17.80;99.90
18721;DHT22;9489;50.948;3.114;2023-05-14T09:06:11;19.00;1.00
18721;DHT22;9489;50.948;3.114;2023-05-14T09:08:38;19.90;1.00
18721;DHT22;9489;50.948;3.114;2023-05-14T09:11:04;20.30;1.00
18721;DHT22;9489;50.948;3.114;2023-05-14T09:13:29;20.60;1.00
18721;DHT22;9489;50.948;3.114;2023-05-14T09:15:56;20.50;1.00
18721;DHT22;9489;50.948;3.114;2023-05-14T09:18:23;20.70;1.00
18721;DHT22;9489;50.948;3.114;2023-05-14T09:20:49;20.80;1.00
18721;DHT22;9489;50.948;3.114;2023-05-14T09:23:16;21.00;1.00
18721;DHT22;9489;50.948;3.114;2023-05-14T09:25:42;21.00;1.00
18721;DHT22;9489;50.948;3.114;2023-05-14T09:28:08;21.40;1.00
18721;DHT22;9489;50.948;3.114;2023-05-14T09:30:33;21.30;1.00
18721;DHT22;9489;50.948;3.114;2023-05-14T09:33:01;21.80;1.00
18721;DHT22;9489;50.948;3.114;2023-05-14T09:35:28;22.40;1.00
18721;DHT22;9489;50.948;3.114;2023-05-14T09:37:54;22.40;1.00
18721;DHT22;9489;50.948;3.114;2023-05-14T09:40:21;23.00;1.00
18721;DHT22;9489;50.948;3.114;2023-05-14T09:42:48;23.20;1.00
18721;DHT22;9489;50.948;3.114;2023-05-14T09:45:14;23.70;1.00
18721;DHT22;9489;50.948;3.114;2023-05-14T09:47:40;23.70;1.00
18721;DHT22;9489;50.948;3.114;2023-05-14T09:50:07;23.60;1.00
18721;DHT22;9489;50.948;3.114;2023-05-14T09:52:34;24.10;1.00
18721;DHT22;9489;50.948;3.114;2023-05-14T09:55:00;24.10;1.00
18721;DHT22;9489;50.948;3.114;2023-05-14T09:57:26;24.40;1.00
18721;DHT22;9489;50.948;3.114;2023-05-14T09:59:52;24.40;1.00
18721;DHT22;9489;50.948;3.114;2023-05-14T10:02:36;24.50;1.00
18721;DHT22;9489;50.948;3.114;2023-05-14T10:05:04;24.60;1.00
18721;DHT22;9489;50.948;3.114;2023-05-14T10:07:41;24.20;1.00
18721;DHT22;9489;50.948;3.114;2023-05-14T10:10:14;24.10;1.00
18721;DHT22;9489;50.948;3.114;2023-05-14T10:12:40;24.10;1.00
18721;DHT22;9489;50.948;3.114;2023-05-14T10:15:16;24.30;1.00
18721;DHT22;9489;50.948;3.114;2023-05-14T10:17:48;24.60;1.00
18721;DHT22;9489;50.948;3.114;2023-05-14T10:20:14;25.10;1.00
18721;DHT22;9489;50.948;3.114;2023-05-14T10:22:43;25.80;1.00
18721;DHT22;9489;50.948;3.114;2023-05-14T10:25:09;26.10;1.00
18721;DHT22;9489;50.948;3.114;2023-05-14T10:27:35;26.30;1.00
18721;DHT22;9489;50.948;3.114;2023-05-14T10:30:05;25.80;1.00
18721;DHT22;9489;50.948;3.114;2023-05-14T10:32:31;26.30;1.00
18721;DHT22;9489;50.948;3.114;2023-05-14T10:34:57;25.90;1.00
18721;DHT22;9489;50.948;3.114;2023-05-14T10:37:26;26.60;1.00
18721;DHT22;9489;50.948;3.114;2023-05-14T10:39:57;26.90;1.00
18721;DHT22;9489;50.948;3.114;2023-05-14T10:42:25;27.60;1.00
18721;DHT22;9489;50.948;3.114;2023-05-14T10:45:03;27.20;1.00
18721;DHT22;9489;50.948;3.114;2023-05-14T10:47:32;27.70;1.00
18721;DHT22;9489;50.948;3.114;2023-05-14T10:50:00;28.30;1.00
18721;DHT22;9489;50.948;3.114;2023-05-14T10:52:26;28.40;1.00
18721;DHT22;9489;50.948;3.114;2023-05-14T10:54:54;28.50;1.00
18721;DHT22;9489;50.948;3.114;2023-05-14T10:57:21;28.50;1.00
18721;DHT22;9489;50.948;3.114;2023-05-14T10:59:49;28.50;1.00
18721;DHT22;9489;50.948;3.114;2023-05-14T11:05:01;28.50;1.00
18721;DHT22;9489;50.948;3.114;2023-05-14T11:07:37;28.40;1.00
18721;DHT22;9489;50.948;3.114;2023-05-14T11:10:09;28.20;1.00
18721;DHT22;9489;50.948;3.114;2023-05-14T11:12:37;28.40;1.00
18721;DHT22;9489;50.948;3.114;2023-05-14T11:15:06;28.90;1.00
18721;DHT22;9489;50.948;3.114;2023-05-14T11:17:33;28.70;1.00
18721;DHT22;9489;50.948;3.114;2023-05-14T11:19:59;29.20;1.00
18721;DHT22;9489;50.948;3.114;2023-05-14T11:22:25;29.30;1.00
18721;DHT22;9489;50.948;3.114;2023-05-14T11:24:51;29.20;1.00
18721;DHT22;9489;50.948;3.114;2023-05-14T11:27:17;29.60;1.00
18721;DHT22;9489;50.948;3.114;2023-05-14T11:29:47;29.60;1.00
18721;DHT22;9489;50.948;3.114;2023-05-14T11:32:14;29.20;1.00
18721;DHT22;9489;50.948;3.114;2023-05-14T11:34:41;28.30;1.00
18721;DHT22;9489;50.948;3.114;2023-05-14T11:37:10;28.70;1.00
18721;DHT22;9489;50.948;3.114;2023-05-14T11:39:37;29.00;1.00
18721;DHT22;9489;50.948;3.114;2023-05-14T11:42:07;28.20;1.00
18721;DHT22;9489;50.948;3.114;2023-05-14T11:44:34;28.00;1.00
18721;DHT22;9489;50.948;3.114;2023-05-14T11:46:59;28.20;1.00
18721;DHT22;9489;50.948;3.114;2023-05-14T11:49:29;28.10;1.00
18721;DHT22;9489;50.948;3.114;2023-05-14T11:51:59;27.60;1.00
18721;DHT22;9489;50.948;3.114;2023-05-14T11:54:26;28.00;1.00
18721;DHT22;9489;50.948;3.114;2023-05-14T11:56:56;28.50;1.00
18721;DHT22;9489;50.948;3.114;2023-05-14T11:59:30;28.00;1.00
18721;DHT22;9489;50.948;3.114;2023-05-14T12:01:57;27.80;1.00
18721;DHT22;9489;50.948;3.114;2023-05-14T12:04:23;27.70;1.00
18721;DHT22;9489;50.948;3.114;2023-05-14T12:06:50;27.80;1.00
18721;DHT22;9489;50.948;3.114;2023-05-14T12:09:20;27.80;1.00
18721;DHT22;9489;50.948;3.114;2023-05-14T12:11:47;27.90;1.00
18721;DHT22;9489;50.948;3.114;2023-05-14T12:14:21;27.80;1.00
18721;DHT22;9489;50.948;3.114;2023-05-14T12:16:49;27.40;1.00
18721;DHT22;9489;50.948;3.114;2023-05-14T12:19:17;26.80;1.00
18721;DHT22;9489;50.948;3.114;2023-05-14T12:21:46;26.00;1.00
18721;DHT22;9489;50.948;3.114;2023-05-14T12:24:14;26.20;1.00
18721;DHT22;9489;50.948;3.114;2023-05-14T12:26:46;26.20;1.00
18721;DHT22;9489;50.948;3.114;2023-05-14T12:29:14;26.20;1.00
18721;DHT22;9489;50.948;3.114;2023-05-14T12:31:47;26.00;1.00
18721;DHT22;9489;50.948;3.114;2023-05-14T12:34:13;25.60;1.00
18721;DHT22;9489;50.948;3.114;2023-05-14T12:36:39;25.50;1.00
18721;DHT22;9489;50.948;3.114;2023-05-14T12:39:07;25.50;1.00
18721;DHT22;9489;50.948;3.114;2023-05-14T12:41:34;25.10;1.00
18721;DHT22;9489;50.948;3.114;2023-05-14T12:44:01;25.30;1.00
18721;DHT22;9489;50.948;3.114;2023-05-14T12:46:26;25.40;1.00
18721;DHT22;9489;50.948;3.114;2023-05-14T12:48:53;25.60;1.00
18721;DHT22;9489;50.948;3.114;2023-05-14T12:51:19;25.10;1.00
18721;DHT22;9489;50.948;3.114;2023-05-14T12:53:45;24.90;1.00
18721;DHT22;9489;50.948;3.114;2023-05-14T12:56:11;24.90;1.00
18721;DHT22;9489;50.948;3.114;2023-05-14T12:58:37;25.20;1.00
18721;DHT22;9489;50.948;3.114;2023-05-14T13:01:02;24.90;1.00
18721;DHT22;9489;50.948;3.114;2023-05-14T13:03:28;25.00;1.00
18721;DHT22;9489;50.948;3.114;2023-05-14T13:05:55;24.70;1.00
18721;DHT22;9489;50.948;3.114;2023-05-14T13:08:21;24.70;99.90
18721;DHT22;9489;50.948;3.114;2023-05-14T13:10:50;24.50;1.00
18721;DHT22;9489;50.948;3.114;2023-05-14T13:13:15;24.20;1.00
18721;DHT22;9489;50.948;3.114;2023-05-14T13:15:41;23.70;99.90
18721;DHT22;9489;50.948;3.114;2023-05-14T13:18:07;23.50;1.00
18721;DHT22;9489;50.948;3.114;2023-05-14T13:20:33;23.30;1.00
18721;DHT22;9489;50.948;3.114;2023-05-14T13:22:59;23.50;1.00
18721;DHT22;9489;50.948;3.114;2023-05-14T13:25:25;23.50;1.00
18721;DHT22;9489;50.948;3.114;2023-05-14T13:27:51;23.40;1.00
18721;DHT22;9489;50.948;3.114;2023-05-14T13:30:19;23.20;1.00
18721;DHT22;9489;50.948;3.114;2023-05-14T13:32:45;23.10;99.90
18721;DHT22;9489;50.948;3.114;2023-05-14T13:35:11;23.10;1.00
18721;DHT22;9489;50.948;3.114;2023-05-14T13:37:37;23.00;99.90
18721;DHT22;9489;50.948;3.114;2023-05-14T13:40:03;22.60;47.40
18721;DHT22;9489;50.948;3.114;2023-05-14T13:42:33;22.70;1.00
18721;DHT22;9489;50.948;3.114;2023-05-14T13:44:59;23.00;24.90
18721;DHT22;9489;50.948;3.114;2023-05-14T13:47:25;22.50;1.00
18721;DHT22;9489;50.948;3.114;2023-05-14T13:49:54;22.00;1.00
18721;DHT22;9489;50.948;3.114;2023-05-14T13:52:21;21.80;1.00
18721;DHT22;9489;50.948;3.114;2023-05-14T13:54:47;21.50;1.00
18721;DHT22;9489;50.948;3.114;2023-05-14T13:57:13;21.40;1.00
18721;DHT22;9489;50.948;3.114;2023-05-14T13:59:39;21.60;99.90
18721;DHT22;9489;50.948;3.114;2023-05-14T14:02:05;21.50;99.90
18721;DHT22;9489;50.948;3.114;2023-05-14T14:04:31;21.60;86.60
18721;DHT22;9489;50.948;3.114;2023-05-14T14:06:57;21.40;99.90
18721;DHT22;9489;50.948;3.114;2023-05-14T14:09:23;21.30;99.90
18721;DHT22;9489;50.948;3.114;2023-05-14T14:11:49;21.20;1.00
18721;DHT22;9489;50.948;3.114;2023-05-14T14:14:15;21.20;1.00
18721;DHT22;9489;50.948;3.114;2023-05-14T14:16:41;21.20;1.00
18721;DHT22;9489;50.948;3.114;2023-05-14T14:19:07;21.00;1.00
18721;DHT22;9489;50.948;3.114;2023-05-14T14:21:33;20.90;1.00
18721;DHT22;9489;50.948;3.114;2023-05-14T14:24:00;20.80;1.00
18721;DHT22;9489;50.948;3.114;2023-05-14T14:26:26;20.40;1.00
18721;DHT22;9489;50.948;3.114;2023-05-14T14:28:52;20.40;1.00
18721;DHT22;9489;50.948;3.114;2023-05-14T14:31:19;20.40;1.00
18721;DHT22;9489;50.948;3.114;2023-05-14T14:33:45;20.30;1.00
18721;DHT22;9489;50.948;3.114;2023-05-14T14:36:11;20.50;55.30
18721;DHT22;9489;50.948;3.114;2023-05-14T14:38:36;20.30;1.00
18721;DHT22;9489;50.948;3.114;2023-05-14T14:41:04;20.10;1.00
18721;DHT22;9489;50.948;3.114;2023-05-14T14:43:33;19.90;1.00
18721;DHT22;9489;50.948;3.114;2023-05-14T14:45:58;19.30;99.90
18721;DHT22;9489;50.948;3.114;2023-05-14T14:48:32;19.40;1.00
18721;DHT22;9489;50.948;3.114;2023-05-14T14:50:59;19.10;1.00
18721;DHT22;9489;50.948;3.114;2023-05-14T14:53:25;19.10;1.00
18721;DHT22;9489;50.948;3.114;2023-05-14T14:55:52;19.10;1.00
18721;DHT22;9489;50.948;3.114;2023-05-14T14:58:18;19.10;1.00
18721;DHT22;9489;50.948;3.114;2023-05-14T15:00:45;19.10;1.00
18721;DHT22;9489;50.948;3.114;2023-05-14T15:03:11;19.00;1.00
18721;DHT22;9489;50.948;3.114;2023-05-14T15:05:38;19.10;99.90
18721;DHT22;9489;50.948;3.114;2023-05-14T15:08:04;19.00;1.00
18721;DHT22;9489;50.948;3.114;2023-05-14T15:10:30;19.00;1.00
18721;DHT22;9489;50.948;3.114;2023-05-14T15:12:57;18.90;99.90
18721;DHT22;9489;50.948;3.114;2023-05-14T15:15:26;19.10;99.90
18721;DHT22;9489;50.948;3.114;2023-05-14T15:17:52;19.20;99.90
18721;DHT22;9489;50.948;3.114;2023-05-14T15:20:17;19.10;1.00
18721;DHT22;9489;50.948;3.114;2023-05-14T15:22:43;19.10;83.70
18721;DHT22;9489;50.948;3.114;2023-05-14T15:25:09;19.10;1.00
18721;DHT22;9489;50.948;3.114;2023-05-14T15:27:34;19.30;1.00
18721;DHT22;9489;50.948;3.114;2023-05-14T15:30:01;19.10;1.00
18721;DHT22;9489;50.948;3.114;2023-05-14T15:32:27;18.90;69.30
18721;DHT22;9489;50.948;3.114;2023-05-14T15:34:54;18.70;1.00
18721;DHT22;9489;50.948;3.114;2023-05-14T15:37:20;18.90;1.00
18721;DHT22;9489;50.948;3.114;2023-05-14T15:39:45;18.90;1.00
18721;DHT22;9489;50.948;3.114;2023-05-14T15:42:11;19.10;1.00
18721;DHT22;9489;50.948;3.114;2023-05-14T15:44:37;19.20;1.00
18721;DHT22;9489;50.948;3.114;2023-05-14T15:47:02;19.30;99.90
18721;DHT22;9489;50.948;3.114;2023-05-14T15:49:28;19.20;1.00
18721;DHT22;9489;50.948;3.114;2023-05-14T15:51:54;19.00;1.00
18721;DHT22;9489;50.948;3.114;2023-05-14T15:54:19;19.00;1.00
18721;DHT22;9489;50.948;3.114;2023-05-14T15:56:45;18.90;99.90
18721;DHT22;9489;50.948;3.114;2023-05-14T15:59:11;18.80;1.00
18721;DHT22;9489;50.948;3.114;2023-05-14T16:01:39;18.60;99.90
18721;DHT22;9489;50.948;3.114;2023-05-14T16:04:05;18.50;99.90